Pagrindinis puslapis
METAR-TAF:

METAR-TAF

Oro uostai :

Provincetown Municipal Airport

Provincetown, Masačusetsas, Jungtinės Amerikos Valstijos

platuma: 42-04N, ilguma: 070-13W, Aukštis: 2 m

Dabartinis oras

Ataskaita buvo paskelbta 24 minutes, ne 06:56 UTC
Vėjas 18 kt iš Vakarų su gūsio iki 24 kt
Temperatūra 0°C
Drėgmė 47%
Slėgis 1006 hPa
Matomumas: 16.1 km
Su prošvaistėmis ne aukštis 4900 ft
Apsiniaukę ne aukštis 6000 ft

METAR: KPVC 280656Z AUTO 27018G24KT 10SM BKN049 OVC060 00/M10 A2970 RMK AO2 PK WND 26027/0632 UPB38E48 SLP055 P0000 T00001100 FZRANO

Laikas: 02:20 (07:20 UTC)


TAF: trūkstamas

Orai ataskaitas ir orų prognozės (METAR, TAF).

turimą stotys yra geltonos ir raudonos taškus žemėlapyje.

Perkelti pele per norėdami pamatyti stoties vardą.

Tada spustelėkite, norėdami matyti oro stebėjimo ir prognozės.

Norėdami pakeisti žemėlapį: spustelėkite ant žalios mygtukų su juodo kryžiaus žemyn,; žalią mygtuką su brūkšneliu, jei norite nutolinti; arba žalių rodyklių gretimoms žemėlapius.


METAR-TAF: